sensor_id;sensor_type;location;lat;lon;timestamp;P1;durP1;ratioP1;P2;durP2;ratioP2
63089;SDS011;49174;43.198;27.824;2022-08-19T00:01:54;10.27;;;8.43;;
63089;SDS011;49174;43.198;27.824;2022-08-19T00:04:22;11.63;;;9.30;;
63089;SDS011;49174;43.198;27.824;2022-08-19T00:06:51;12.27;;;8.40;;
63089;SDS011;49174;43.198;27.824;2022-08-19T00:09:18;11.13;;;9.02;;
63089;SDS011;49174;43.198;27.824;2022-08-19T00:11:44;11.82;;;9.32;;
63089;SDS011;49174;43.198;27.824;2022-08-19T00:14:11;9.85;;;8.60;;
63089;SDS011;49174;43.198;27.824;2022-08-19T00:16:39;10.15;;;8.95;;
63089;SDS011;49174;43.198;27.824;2022-08-19T00:19:06;14.20;;;9.02;;
63089;SDS011;49174;43.198;27.824;2022-08-19T00:21:32;12.90;;;9.82;;
63089;SDS011;49174;43.198;27.824;2022-08-19T00:24:03;13.00;;;9.55;;
63089;SDS011;49174;43.198;27.824;2022-08-19T00:26:29;12.40;;;9.88;;
63089;SDS011;49174;43.198;27.824;2022-08-19T00:28:55;13.90;;;8.70;;
63089;SDS011;49174;43.198;27.824;2022-08-19T00:31:21;10.85;;;9.38;;
63089;SDS011;49174;43.198;27.824;2022-08-19T00:33:47;19.98;;;10.18;;
63089;SDS011;49174;43.198;27.824;2022-08-19T00:36:15;12.82;;;9.40;;
63089;SDS011;49174;43.198;27.824;2022-08-19T00:38:41;14.77;;;9.35;;
63089;SDS011;49174;43.198;27.824;2022-08-19T00:41:09;12.48;;;9.13;;
63089;SDS011;49174;43.198;27.824;2022-08-19T00:43:37;11.05;;;9.52;;
63089;SDS011;49174;43.198;27.824;2022-08-19T00:46:04;10.85;;;9.43;;
63089;SDS011;49174;43.198;27.824;2022-08-19T00:48:30;15.38;;;9.10;;
63089;SDS011;49174;43.198;27.824;2022-08-19T00:50:57;14.65;;;9.93;;
63089;SDS011;49174;43.198;27.824;2022-08-19T00:53:24;11.52;;;9.25;;
63089;SDS011;49174;43.198;27.824;2022-08-19T00:55:54;13.07;;;8.77;;
63089;SDS011;49174;43.198;27.824;2022-08-19T00:58:24;16.10;;;9.75;;
63089;SDS011;49174;43.198;27.824;2022-08-19T01:00:54;20.63;;;9.65;;
63089;SDS011;49174;43.198;27.824;2022-08-19T01:03:20;12.07;;;10.35;;
63089;SDS011;49174;43.198;27.824;2022-08-19T01:05:47;12.55;;;9.93;;
63089;SDS011;49174;43.198;27.824;2022-08-19T01:08:16;14.00;;;11.38;;
63089;SDS011;49174;43.198;27.824;2022-08-19T01:10:45;16.50;;;12.20;;
63089;SDS011;49174;43.198;27.824;2022-08-19T01:13:17;18.25;;;13.63;;
63089;SDS011;49174;43.198;27.824;2022-08-19T01:15:47;17.67;;;13.18;;
63089;SDS011;49174;43.198;27.824;2022-08-19T01:18:16;19.17;;;14.25;;
63089;SDS011;49174;43.198;27.824;2022-08-19T01:20:44;16.02;;;12.50;;
63089;SDS011;49174;43.198;27.824;2022-08-19T01:23:11;21.98;;;13.52;;
63089;SDS011;49174;43.198;27.824;2022-08-19T01:25:47;15.70;;;12.82;;
63089;SDS011;49174;43.198;27.824;2022-08-19T01:28:18;16.67;;;14.63;;
63089;SDS011;49174;43.198;27.824;2022-08-19T01:30:47;20.15;;;15.10;;
63089;SDS011;49174;43.198;27.824;2022-08-19T01:33:13;21.52;;;16.13;;
63089;SDS011;49174;43.198;27.824;2022-08-19T01:35:40;17.92;;;13.77;;
63089;SDS011;49174;43.198;27.824;2022-08-19T01:38:08;22.58;;;15.15;;
63089;SDS011;49174;43.198;27.824;2022-08-19T01:40:43;19.15;;;14.70;;
63089;SDS011;49174;43.198;27.824;2022-08-19T01:43:09;20.63;;;13.82;;
63089;SDS011;49174;43.198;27.824;2022-08-19T01:45:35;21.40;;;15.48;;
63089;SDS011;49174;43.198;27.824;2022-08-19T01:48:03;19.48;;;13.07;;
63089;SDS011;49174;43.198;27.824;2022-08-19T01:50:31;16.60;;;13.95;;
63089;SDS011;49174;43.198;27.824;2022-08-19T01:52:58;16.58;;;13.98;;
63089;SDS011;49174;43.198;27.824;2022-08-19T01:55:25;16.95;;;13.05;;
63089;SDS011;49174;43.198;27.824;2022-08-19T01:57:52;19.88;;;13.98;;
63089;SDS011;49174;43.198;27.824;2022-08-19T02:00:21;20.52;;;13.90;;
63089;SDS011;49174;43.198;27.824;2022-08-19T02:02:49;17.60;;;12.95;;
63089;SDS011;49174;43.198;27.824;2022-08-19T02:05:15;16.42;;;12.65;;
63089;SDS011;49174;43.198;27.824;2022-08-19T02:07:43;14.32;;;12.00;;
63089;SDS011;49174;43.198;27.824;2022-08-19T02:10:16;18.15;;;13.98;;
63089;SDS011;49174;43.198;27.824;2022-08-19T02:12:44;18.73;;;15.25;;
63089;SDS011;49174;43.198;27.824;2022-08-19T02:15:11;19.35;;;15.43;;
63089;SDS011;49174;43.198;27.824;2022-08-19T02:17:37;21.52;;;15.57;;
63089;SDS011;49174;43.198;27.824;2022-08-19T02:20:03;22.23;;;15.73;;
63089;SDS011;49174;43.198;27.824;2022-08-19T02:22:30;23.73;;;18.23;;
63089;SDS011;49174;43.198;27.824;2022-08-19T02:24:55;26.55;;;18.63;;
63089;SDS011;49174;43.198;27.824;2022-08-19T02:27:21;22.88;;;18.15;;
63089;SDS011;49174;43.198;27.824;2022-08-19T02:29:48;21.80;;;18.00;;
63089;SDS011;49174;43.198;27.824;2022-08-19T02:32:15;24.17;;;17.00;;
63089;SDS011;49174;43.198;27.824;2022-08-19T02:34:41;24.10;;;17.45;;
63089;SDS011;49174;43.198;27.824;2022-08-19T02:37:07;24.77;;;16.52;;
63089;SDS011;49174;43.198;27.824;2022-08-19T02:39:52;21.95;;;15.70;;
63089;SDS011;49174;43.198;27.824;2022-08-19T02:42:18;26.35;;;17.10;;
63089;SDS011;49174;43.198;27.824;2022-08-19T02:44:44;20.45;;;15.48;;
63089;SDS011;49174;43.198;27.824;2022-08-19T02:47:09;16.17;;;13.27;;
63089;SDS011;49174;43.198;27.824;2022-08-19T02:49:35;15.85;;;13.40;;
63089;SDS011;49174;43.198;27.824;2022-08-19T02:52:01;23.17;;;16.33;;
63089;SDS011;49174;43.198;27.824;2022-08-19T02:54:28;19.48;;;12.98;;
63089;SDS011;49174;43.198;27.824;2022-08-19T02:56:55;14.38;;;12.85;;
63089;SDS011;49174;43.198;27.824;2022-08-19T02:59:21;15.13;;;12.43;;
63089;SDS011;49174;43.198;27.824;2022-08-19T03:01:46;18.73;;;13.63;;
63089;SDS011;49174;43.198;27.824;2022-08-19T03:04:13;14.30;;;12.70;;
63089;SDS011;49174;43.198;27.824;2022-08-19T03:06:42;16.95;;;12.27;;
63089;SDS011;49174;43.198;27.824;2022-08-19T03:09:09;16.20;;;11.30;;
63089;SDS011;49174;43.198;27.824;2022-08-19T03:11:35;16.92;;;11.82;;
63089;SDS011;49174;43.198;27.824;2022-08-19T03:14:02;13.60;;;11.65;;
63089;SDS011;49174;43.198;27.824;2022-08-19T03:16:29;13.63;;;10.95;;
63089;SDS011;49174;43.198;27.824;2022-08-19T03:18:56;15.52;;;11.32;;
63089;SDS011;49174;43.198;27.824;2022-08-19T03:21:29;15.90;;;11.35;;
63089;SDS011;49174;43.198;27.824;2022-08-19T03:23:56;13.50;;;10.75;;
63089;SDS011;49174;43.198;27.824;2022-08-19T03:26:23;16.23;;;11.88;;
63089;SDS011;49174;43.198;27.824;2022-08-19T03:28:49;15.27;;;11.15;;
63089;SDS011;49174;43.198;27.824;2022-08-19T03:31:15;15.10;;;10.63;;
63089;SDS011;49174;43.198;27.824;2022-08-19T03:33:43;14.13;;;10.88;;
63089;SDS011;49174;43.198;27.824;2022-08-19T03:36:14;15.02;;;10.95;;
63089;SDS011;49174;43.198;27.824;2022-08-19T03:38:43;13.77;;;10.70;;
63089;SDS011;49174;43.198;27.824;2022-08-19T03:41:12;14.30;;;10.57;;
63089;SDS011;49174;43.198;27.824;2022-08-19T03:43:40;12.40;;;9.73;;
63089;SDS011;49174;43.198;27.824;2022-08-19T03:46:07;21.60;;;11.85;;
63089;SDS011;49174;43.198;27.824;2022-08-19T03:48:38;14.00;;;10.82;;
63089;SDS011;49174;43.198;27.824;2022-08-19T03:51:06;13.90;;;10.95;;
63089;SDS011;49174;43.198;27.824;2022-08-19T03:53:33;17.17;;;10.40;;
63089;SDS011;49174;43.198;27.824;2022-08-19T03:56:00;14.68;;;11.05;;
63089;SDS011;49174;43.198;27.824;2022-08-19T03:58:27;15.80;;;10.90;;
63089;SDS011;49174;43.198;27.824;2022-08-19T04:00:55;15.32;;;10.93;;
63089;SDS011;49174;43.198;27.824;2022-08-19T04:03:22;15.00;;;10.55;;
63089;SDS011;49174;43.198;27.824;2022-08-19T04:05:48;13.68;;;10.90;;
63089;SDS011;49174;43.198;27.824;2022-08-19T04:08:13;15.18;;;11.48;;
63089;SDS011;49174;43.198;27.824;2022-08-19T04:10:45;13.70;;;11.43;;
63089;SDS011;49174;43.198;27.824;2022-08-19T04:13:13;24.15;;;17.25;;
63089;SDS011;49174;43.198;27.824;2022-08-19T04:15:41;15.10;;;12.63;;
63089;SDS011;49174;43.198;27.824;2022-08-19T04:18:09;15.05;;;12.52;;
63089;SDS011;49174;43.198;27.824;2022-08-19T04:20:38;15.77;;;12.05;;
63089;SDS011;49174;43.198;27.824;2022-08-19T04:23:08;17.52;;;11.77;;
63089;SDS011;49174;43.198;27.824;2022-08-19T04:25:41;15.27;;;11.35;;
63089;SDS011;49174;43.198;27.824;2022-08-19T04:28:09;17.15;;;11.63;;
63089;SDS011;49174;43.198;27.824;2022-08-19T04:30:42;14.20;;;11.60;;
63089;SDS011;49174;43.198;27.824;2022-08-19T04:33:10;16.10;;;12.38;;
63089;SDS011;49174;43.198;27.824;2022-08-19T04:35:38;17.80;;;12.63;;
63089;SDS011;49174;43.198;27.824;2022-08-19T04:38:06;16.35;;;11.98;;
63089;SDS011;49174;43.198;27.824;2022-08-19T04:40:31;14.88;;;11.25;;
63089;SDS011;49174;43.198;27.824;2022-08-19T04:43:16;14.95;;;12.02;;
63089;SDS011;49174;43.198;27.824;2022-08-19T04:45:46;14.95;;;11.88;;
63089;SDS011;49174;43.198;27.824;2022-08-19T04:48:12;13.18;;;11.50;;
63089;SDS011;49174;43.198;27.824;2022-08-19T04:50:41;14.35;;;11.35;;
63089;SDS011;49174;43.198;27.824;2022-08-19T04:53:08;17.00;;;11.77;;
63089;SDS011;49174;43.198;27.824;2022-08-19T04:55:40;18.30;;;11.80;;
63089;SDS011;49174;43.198;27.824;2022-08-19T04:58:06;13.52;;;11.35;;
63089;SDS011;49174;43.198;27.824;2022-08-19T05:00:32;12.63;;;11.27;;
63089;SDS011;49174;43.198;27.824;2022-08-19T05:02:58;18.95;;;11.25;;
63089;SDS011;49174;43.198;27.824;2022-08-19T05:05:23;14.18;;;11.43;;
63089;SDS011;49174;43.198;27.824;2022-08-19T05:07:49;14.07;;;10.60;;
63089;SDS011;49174;43.198;27.824;2022-08-19T05:10:14;14.25;;;10.60;;
63089;SDS011;49174;43.198;27.824;2022-08-19T05:12:40;14.02;;;9.50;;
63089;SDS011;49174;43.198;27.824;2022-08-19T05:15:06;13.35;;;10.73;;
63089;SDS011;49174;43.198;27.824;2022-08-19T05:17:34;12.35;;;10.27;;
63089;SDS011;49174;43.198;27.824;2022-08-19T05:20:00;14.20;;;10.48;;
63089;SDS011;49174;43.198;27.824;2022-08-19T05:22:45;16.95;;;10.50;;
63089;SDS011;49174;43.198;27.824;2022-08-19T05:25:13;14.65;;;10.02;;
63089;SDS011;49174;43.198;27.824;2022-08-19T05:27:43;13.23;;;9.55;;
63089;SDS011;49174;43.198;27.824;2022-08-19T05:30:09;10.63;;;9.48;;
63089;SDS011;49174;43.198;27.824;2022-08-19T05:32:36;10.35;;;8.95;;
63089;SDS011;49174;43.198;27.824;2022-08-19T05:35:02;10.95;;;7.82;;
63089;SDS011;49174;43.198;27.824;2022-08-19T05:37:28;11.55;;;7.20;;
63089;SDS011;49174;43.198;27.824;2022-08-19T05:39:54;10.70;;;7.35;;
63089;SDS011;49174;43.198;27.824;2022-08-19T05:42:20;9.45;;;7.53;;
63089;SDS011;49174;43.198;27.824;2022-08-19T05:44:48;7.85;;;6.82;;
63089;SDS011;49174;43.198;27.824;2022-08-19T05:47:15;9.25;;;6.80;;
63089;SDS011;49174;43.198;27.824;2022-08-19T05:49:41;8.52;;;7.07;;
63089;SDS011;49174;43.198;27.824;2022-08-19T05:52:09;8.32;;;6.35;;
63089;SDS011;49174;43.198;27.824;2022-08-19T05:54:39;9.52;;;7.43;;
63089;SDS011;49174;43.198;27.824;2022-08-19T05:57:06;8.05;;;7.00;;
63089;SDS011;49174;43.198;27.824;2022-08-19T05:59:33;10.10;;;6.50;;
63089;SDS011;49174;43.198;27.824;2022-08-19T06:02:01;9.02;;;7.07;;
63089;SDS011;49174;43.198;27.824;2022-08-19T06:04:28;8.90;;;6.75;;
63089;SDS011;49174;43.198;27.824;2022-08-19T06:06:54;8.80;;;6.65;;
63089;SDS011;49174;43.198;27.824;2022-08-19T06:09:20;9.68;;;6.47;;
63089;SDS011;49174;43.198;27.824;2022-08-19T06:11:48;10.82;;;6.10;;
63089;SDS011;49174;43.198;27.824;2022-08-19T06:14:20;8.15;;;7.35;;
63089;SDS011;49174;43.198;27.824;2022-08-19T06:16:48;7.80;;;7.00;;
63089;SDS011;49174;43.198;27.824;2022-08-19T06:19:17;10.63;;;7.65;;
63089;SDS011;49174;43.198;27.824;2022-08-19T06:21:46;10.18;;;6.40;;
63089;SDS011;49174;43.198;27.824;2022-08-19T06:24:14;7.97;;;7.18;;
63089;SDS011;49174;43.198;27.824;2022-08-19T06:26:43;8.77;;;6.50;;
63089;SDS011;49174;43.198;27.824;2022-08-19T06:29:11;9.80;;;6.93;;
63089;SDS011;49174;43.198;27.824;2022-08-19T06:31:40;9.63;;;6.55;;
63089;SDS011;49174;43.198;27.824;2022-08-19T06:34:11;11.40;;;6.28;;
63089;SDS011;49174;43.198;27.824;2022-08-19T06:36:39;11.10;;;7.00;;
63089;SDS011;49174;43.198;27.824;2022-08-19T06:39:10;15.00;;;6.82;;
63089;SDS011;49174;43.198;27.824;2022-08-19T06:41:38;7.57;;;5.53;;
63089;SDS011;49174;43.198;27.824;2022-08-19T06:44:06;9.88;;;6.13;;
63089;SDS011;49174;43.198;27.824;2022-08-19T06:46:32;8.43;;;6.40;;
63089;SDS011;49174;43.198;27.824;2022-08-19T06:48:57;9.15;;;6.50;;
63089;SDS011;49174;43.198;27.824;2022-08-19T06:51:24;6.47;;;5.70;;
63089;SDS011;49174;43.198;27.824;2022-08-19T06:53:51;9.95;;;6.25;;
63089;SDS011;49174;43.198;27.824;2022-08-19T06:56:23;9.18;;;6.50;;
63089;SDS011;49174;43.198;27.824;2022-08-19T06:58:56;7.82;;;6.10;;
63089;SDS011;49174;43.198;27.824;2022-08-19T07:01:22;8.00;;;5.88;;
63089;SDS011;49174;43.198;27.824;2022-08-19T07:03:47;10.85;;;6.78;;
63089;SDS011;49174;43.198;27.824;2022-08-19T07:06:16;9.55;;;5.85;;
63089;SDS011;49174;43.198;27.824;2022-08-19T07:08:45;9.73;;;5.68;;
63089;SDS011;49174;43.198;27.824;2022-08-19T07:11:13;7.65;;;6.05;;
63089;SDS011;49174;43.198;27.824;2022-08-19T07:13:41;6.57;;;5.57;;
63089;SDS011;49174;43.198;27.824;2022-08-19T07:16:10;7.07;;;5.88;;
63089;SDS011;49174;43.198;27.824;2022-08-19T07:18:41;11.50;;;5.72;;
63089;SDS011;49174;43.198;27.824;2022-08-19T07:21:08;11.45;;;6.13;;
63089;SDS011;49174;43.198;27.824;2022-08-19T07:23:42;5.93;;;5.22;;
63089;SDS011;49174;43.198;27.824;2022-08-19T07:26:11;6.50;;;5.05;;
63089;SDS011;49174;43.198;27.824;2022-08-19T07:28:38;7.07;;;5.43;;
63089;SDS011;49174;43.198;27.824;2022-08-19T07:31:05;7.53;;;5.63;;
63089;SDS011;49174;43.198;27.824;2022-08-19T07:33:32;8.38;;;5.55;;
63089;SDS011;49174;43.198;27.824;2022-08-19T07:35:58;8.70;;;5.53;;
63089;SDS011;49174;43.198;27.824;2022-08-19T07:38:24;11.45;;;5.43;;
63089;SDS011;49174;43.198;27.824;2022-08-19T07:40:50;5.60;;;5.00;;
63089;SDS011;49174;43.198;27.824;2022-08-19T07:43:16;7.28;;;5.63;;
63089;SDS011;49174;43.198;27.824;2022-08-19T07:45:53;10.05;;;5.68;;
63089;SDS011;49174;43.198;27.824;2022-08-19T07:48:24;7.15;;;5.32;;
63089;SDS011;49174;43.198;27.824;2022-08-19T07:50:54;7.35;;;5.03;;
63089;SDS011;49174;43.198;27.824;2022-08-19T07:53:22;6.20;;;4.68;;
63089;SDS011;49174;43.198;27.824;2022-08-19T07:55:48;7.03;;;4.88;;
63089;SDS011;49174;43.198;27.824;2022-08-19T07:58:15;6.40;;;5.43;;
63089;SDS011;49174;43.198;27.824;2022-08-19T08:00:44;7.30;;;4.78;;
63089;SDS011;49174;43.198;27.824;2022-08-19T08:03:11;5.65;;;5.05;;
63089;SDS011;49174;43.198;27.824;2022-08-19T08:05:38;7.35;;;4.60;;
63089;SDS011;49174;43.198;27.824;2022-08-19T08:08:22;8.07;;;5.13;;
63089;SDS011;49174;43.198;27.824;2022-08-19T08:11:07;7.35;;;5.00;;
63089;SDS011;49174;43.198;27.824;2022-08-19T08:13:32;8.07;;;4.70;;
63089;SDS011;49174;43.198;27.824;2022-08-19T08:16:00;7.28;;;4.85;;
63089;SDS011;49174;43.198;27.824;2022-08-19T08:18:27;6.93;;;4.75;;
63089;SDS011;49174;43.198;27.824;2022-08-19T08:20:53;6.32;;;4.85;;
63089;SDS011;49174;43.198;27.824;2022-08-19T08:23:19;6.07;;;4.88;;
63089;SDS011;49174;43.198;27.824;2022-08-19T08:25:47;5.10;;;4.53;;
63089;SDS011;49174;43.198;27.824;2022-08-19T08:28:14;10.05;;;5.35;;
63089;SDS011;49174;43.198;27.824;2022-08-19T08:30:40;5.95;;;4.07;;
63089;SDS011;49174;43.198;27.824;2022-08-19T08:33:07;9.32;;;4.45;;
63089;SDS011;49174;43.198;27.824;2022-08-19T08:35:33;8.20;;;4.95;;
63089;SDS011;49174;43.198;27.824;2022-08-19T08:37:59;6.45;;;4.28;;
63089;SDS011;49174;43.198;27.824;2022-08-19T08:43:40;5.32;;;4.60;;
63089;SDS011;49174;43.198;27.824;2022-08-19T08:54:37;5.03;;;4.45;;
63089;SDS011;49174;43.198;27.824;2022-08-19T08:57:07;7.40;;;4.40;;
63089;SDS011;49174;43.198;27.824;2022-08-19T08:59:39;5.65;;;4.40;;
63089;SDS011;49174;43.198;27.824;2022-08-19T09:02:07;5.07;;;3.70;;
63089;SDS011;49174;43.198;27.824;2022-08-19T09:04:35;5.68;;;4.38;;
63089;SDS011;49174;43.198;27.824;2022-08-19T09:09:41;12.00;;;8.18;;
63089;SDS011;49174;43.198;27.824;2022-08-19T09:12:16;5.95;;;4.50;;
63089;SDS011;49174;43.198;27.824;2022-08-19T09:14:56;8.95;;;4.75;;
63089;SDS011;49174;43.198;27.824;2022-08-19T09:17:26;7.22;;;4.63;;
63089;SDS011;49174;43.198;27.824;2022-08-19T09:19:59;8.65;;;4.82;;
63089;SDS011;49174;43.198;27.824;2022-08-19T09:22:33;4.90;;;4.00;;
63089;SDS011;49174;43.198;27.824;2022-08-19T09:25:00;7.68;;;4.30;;
63089;SDS011;49174;43.198;27.824;2022-08-19T09:27:26;6.72;;;4.93;;
63089;SDS011;49174;43.198;27.824;2022-08-19T09:29:53;9.23;;;5.40;;
63089;SDS011;49174;43.198;27.824;2022-08-19T09:32:19;6.13;;;4.40;;
63089;SDS011;49174;43.198;27.824;2022-08-19T09:34:46;5.47;;;4.45;;
63089;SDS011;49174;43.198;27.824;2022-08-19T09:37:12;8.63;;;5.10;;
63089;SDS011;49174;43.198;27.824;2022-08-19T09:39:38;9.77;;;5.00;;
63089;SDS011;49174;43.198;27.824;2022-08-19T09:42:06;8.98;;;4.97;;
63089;SDS011;49174;43.198;27.824;2022-08-19T09:44:40;7.47;;;4.43;;
63089;SDS011;49174;43.198;27.824;2022-08-19T09:47:07;5.75;;;4.85;;
63089;SDS011;49174;43.198;27.824;2022-08-19T09:49:34;10.23;;;4.65;;
63089;SDS011;49174;43.198;27.824;2022-08-19T09:52:00;6.72;;;4.80;;
63089;SDS011;49174;43.198;27.824;2022-08-19T09:54:26;5.25;;;4.75;;
63089;SDS011;49174;43.198;27.824;2022-08-19T09:56:52;7.90;;;4.78;;
63089;SDS011;49174;43.198;27.824;2022-08-19T09:59:18;7.30;;;4.47;;
63089;SDS011;49174;43.198;27.824;2022-08-19T10:01:44;6.47;;;5.20;;
63089;SDS011;49174;43.198;27.824;2022-08-19T10:04:10;6.95;;;4.47;;
63089;SDS011;49174;43.198;27.824;2022-08-19T10:06:37;7.65;;;4.28;;
63089;SDS011;49174;43.198;27.824;2022-08-19T10:09:05;6.93;;;4.40;;
63089;SDS011;49174;43.198;27.824;2022-08-19T10:11:35;9.57;;;4.57;;
63089;SDS011;49174;43.198;27.824;2022-08-19T10:14:03;5.35;;;4.45;;
63089;SDS011;49174;43.198;27.824;2022-08-19T10:16:31;7.32;;;4.30;;
63089;SDS011;49174;43.198;27.824;2022-08-19T10:18:57;8.27;;;4.13;;
63089;SDS011;49174;43.198;27.824;2022-08-19T10:21:24;9.02;;;4.88;;
63089;SDS011;49174;43.198;27.824;2022-08-19T10:23:53;12.50;;;4.18;;
63089;SDS011;49174;43.198;27.824;2022-08-19T10:26:29;6.97;;;4.50;;
63089;SDS011;49174;43.198;27.824;2022-08-19T10:28:57;7.00;;;4.28;;
63089;SDS011;49174;43.198;27.824;2022-08-19T10:31:27;5.93;;;4.53;;
63089;SDS011;49174;43.198;27.824;2022-08-19T10:33:55;5.38;;;4.00;;
63089;SDS011;49174;43.198;27.824;2022-08-19T10:36:31;5.50;;;4.13;;
63089;SDS011;49174;43.198;27.824;2022-08-19T10:38:59;10.18;;;4.95;;
63089;SDS011;49174;43.198;27.824;2022-08-19T10:41:36;9.75;;;4.60;;
63089;SDS011;49174;43.198;27.824;2022-08-19T10:44:04;6.40;;;4.40;;
63089;SDS011;49174;43.198;27.824;2022-08-19T10:46:36;5.28;;;4.05;;
63089;SDS011;49174;43.198;27.824;2022-08-19T10:49:06;7.45;;;3.95;;
63089;SDS011;49174;43.198;27.824;2022-08-19T10:51:34;5.28;;;4.30;;
63089;SDS011;49174;43.198;27.824;2022-08-19T10:54:19;4.65;;;3.70;;
63089;SDS011;49174;43.198;27.824;2022-08-19T10:56:45;8.75;;;4.10;;
63089;SDS011;49174;43.198;27.824;2022-08-19T10:59:27;6.88;;;4.78;;
63089;SDS011;49174;43.198;27.824;2022-08-19T11:01:58;7.45;;;5.30;;
63089;SDS011;49174;43.198;27.824;2022-08-19T11:04:26;7.20;;;4.38;;
63089;SDS011;49174;43.198;27.824;2022-08-19T11:06:52;7.70;;;4.25;;
63089;SDS011;49174;43.198;27.824;2022-08-19T11:09:19;4.57;;;3.50;;
63089;SDS011;49174;43.198;27.824;2022-08-19T11:11:50;6.35;;;4.20;;
63089;SDS011;49174;43.198;27.824;2022-08-19T11:14:18;5.60;;;3.97;;
63089;SDS011;49174;43.198;27.824;2022-08-19T11:16:45;8.40;;;4.13;;
63089;SDS011;49174;43.198;27.824;2022-08-19T11:19:13;5.13;;;3.90;;
63089;SDS011;49174;43.198;27.824;2022-08-19T11:21:42;7.70;;;4.53;;
63089;SDS011;49174;43.198;27.824;2022-08-19T11:24:13;10.45;;;5.30;;
63089;SDS011;49174;43.198;27.824;2022-08-19T11:26:41;7.45;;;4.82;;
63089;SDS011;49174;43.198;27.824;2022-08-19T11:29:09;7.65;;;4.90;;
63089;SDS011;49174;43.198;27.824;2022-08-19T11:31:39;8.43;;;5.43;;
63089;SDS011;49174;43.198;27.824;2022-08-19T11:34:07;8.23;;;5.30;;
63089;SDS011;49174;43.198;27.824;2022-08-19T11:36:37;6.45;;;5.78;;
63089;SDS011;49174;43.198;27.824;2022-08-19T11:39:06;6.97;;;5.40;;
63089;SDS011;49174;43.198;27.824;2022-08-19T11:41:32;6.88;;;5.57;;
63089;SDS011;49174;43.198;27.824;2022-08-19T11:43:59;7.78;;;5.72;;
63089;SDS011;49174;43.198;27.824;2022-08-19T11:46:25;9.95;;;5.65;;
63089;SDS011;49174;43.198;27.824;2022-08-19T11:48:54;12.07;;;5.47;;
63089;SDS011;49174;43.198;27.824;2022-08-19T11:51:22;9.65;;;6.50;;
63089;SDS011;49174;43.198;27.824;2022-08-19T11:53:53;8.30;;;5.13;;
63089;SDS011;49174;43.198;27.824;2022-08-19T11:56:20;7.72;;;5.47;;
63089;SDS011;49174;43.198;27.824;2022-08-19T11:58:47;9.35;;;5.47;;
63089;SDS011;49174;43.198;27.824;2022-08-19T12:01:15;6.75;;;5.63;;
63089;SDS011;49174;43.198;27.824;2022-08-19T12:03:43;7.10;;;5.43;;
63089;SDS011;49174;43.198;27.824;2022-08-19T12:06:11;7.57;;;5.65;;
63089;SDS011;49174;43.198;27.824;2022-08-19T12:08:39;6.45;;;5.38;;
63089;SDS011;49174;43.198;27.824;2022-08-19T12:11:06;7.55;;;5.10;;
63089;SDS011;49174;43.198;27.824;2022-08-19T12:13:33;7.85;;;5.68;;
63089;SDS011;49174;43.198;27.824;2022-08-19T12:15:59;5.47;;;4.90;;
63089;SDS011;49174;43.198;27.824;2022-08-19T12:18:25;7.93;;;5.22;;
63089;SDS011;49174;43.198;27.824;2022-08-19T12:20:52;9.60;;;5.60;;
63089;SDS011;49174;43.198;27.824;2022-08-19T12:23:19;6.07;;;5.45;;
63089;SDS011;49174;43.198;27.824;2022-08-19T12:25:46;7.97;;;5.57;;
63089;SDS011;49174;43.198;27.824;2022-08-19T12:28:18;7.35;;;5.53;;
63089;SDS011;49174;43.198;27.824;2022-08-19T12:30:45;6.82;;;5.72;;
63089;SDS011;49174;43.198;27.824;2022-08-19T12:33:11;5.85;;;5.25;;
63089;SDS011;49174;43.198;27.824;2022-08-19T12:35:42;7.85;;;5.80;;
63089;SDS011;49174;43.198;27.824;2022-08-19T12:38:09;7.25;;;5.00;;
63089;SDS011;49174;43.198;27.824;2022-08-19T12:40:35;6.63;;;5.38;;
63089;SDS011;49174;43.198;27.824;2022-08-19T12:43:02;7.00;;;5.20;;
63089;SDS011;49174;43.198;27.824;2022-08-19T12:45:27;5.57;;;4.72;;
63089;SDS011;49174;43.198;27.824;2022-08-19T12:47:53;7.93;;;5.07;;
63089;SDS011;49174;43.198;27.824;2022-08-19T12:50:19;9.82;;;5.82;;
63089;SDS011;49174;43.198;27.824;2022-08-19T12:52:46;6.80;;;4.72;;
63089;SDS011;49174;43.198;27.824;2022-08-19T12:55:12;7.78;;;5.43;;
63089;SDS011;49174;43.198;27.824;2022-08-19T12:57:37;13.27;;;5.47;;
63089;SDS011;49174;43.198;27.824;2022-08-19T13:00:08;6.78;;;4.88;;
63089;SDS011;49174;43.198;27.824;2022-08-19T13:02:38;8.07;;;5.22;;
63089;SDS011;49174;43.198;27.824;2022-08-19T13:05:09;6.50;;;5.22;;
63089;SDS011;49174;43.198;27.824;2022-08-19T13:07:37;7.25;;;4.65;;
63089;SDS011;49174;43.198;27.824;2022-08-19T13:10:05;12.50;;;5.20;;
63089;SDS011;49174;43.198;27.824;2022-08-19T13:12:32;8.70;;;5.63;;
63089;SDS011;49174;43.198;27.824;2022-08-19T13:14:57;7.80;;;5.72;;
63089;SDS011;49174;43.198;27.824;2022-08-19T13:17:23;10.38;;;5.05;;
63089;SDS011;49174;43.198;27.824;2022-08-19T13:19:49;7.40;;;4.95;;
63089;SDS011;49174;43.198;27.824;2022-08-19T13:22:16;6.03;;;4.68;;
63089;SDS011;49174;43.198;27.824;2022-08-19T13:24:41;8.40;;;5.50;;
63089;SDS011;49174;43.198;27.824;2022-08-19T13:27:07;6.53;;;4.72;;
63089;SDS011;49174;43.198;27.824;2022-08-19T13:29:33;5.82;;;4.60;;
63089;SDS011;49174;43.198;27.824;2022-08-19T13:32:18;6.88;;;4.72;;
63089;SDS011;49174;43.198;27.824;2022-08-19T13:35:02;11.07;;;5.43;;
63089;SDS011;49174;43.198;27.824;2022-08-19T13:37:29;9.73;;;5.05;;
63089;SDS011;49174;43.198;27.824;2022-08-19T13:40:07;6.95;;;5.45;;
63089;SDS011;49174;43.198;27.824;2022-08-19T13:42:40;8.02;;;4.97;;
63089;SDS011;49174;43.198;27.824;2022-08-19T13:45:06;5.68;;;5.07;;
63089;SDS011;49174;43.198;27.824;2022-08-19T13:47:33;10.57;;;5.10;;
63089;SDS011;49174;43.198;27.824;2022-08-19T13:49:59;6.22;;;5.07;;
63089;SDS011;49174;43.198;27.824;2022-08-19T13:52:27;7.40;;;5.47;;
63089;SDS011;49174;43.198;27.824;2022-08-19T13:54:53;7.75;;;5.53;;
63089;SDS011;49174;43.198;27.824;2022-08-19T13:57:18;8.02;;;5.45;;
63089;SDS011;49174;43.198;27.824;2022-08-19T13:59:45;8.45;;;5.63;;
63089;SDS011;49174;43.198;27.824;2022-08-19T14:02:11;13.52;;;5.18;;
63089;SDS011;49174;43.198;27.824;2022-08-19T14:04:36;8.98;;;5.38;;
63089;SDS011;49174;43.198;27.824;2022-08-19T14:07:02;5.65;;;4.88;;
63089;SDS011;49174;43.198;27.824;2022-08-19T14:09:29;7.53;;;5.05;;
63089;SDS011;49174;43.198;27.824;2022-08-19T14:11:54;7.00;;;4.57;;
63089;SDS011;49174;43.198;27.824;2022-08-19T14:14:20;8.30;;;4.75;;
63089;SDS011;49174;43.198;27.824;2022-08-19T14:16:46;10.38;;;5.10;;
63089;SDS011;49174;43.198;27.824;2022-08-19T14:19:13;6.50;;;4.72;;
63089;SDS011;49174;43.198;27.824;2022-08-19T14:21:39;7.50;;;5.43;;
63089;SDS011;49174;43.198;27.824;2022-08-19T14:24:07;6.80;;;5.15;;
63089;SDS011;49174;43.198;27.824;2022-08-19T14:26:33;6.70;;;4.90;;
63089;SDS011;49174;43.198;27.824;2022-08-19T14:28:59;10.52;;;5.28;;
63089;SDS011;49174;43.198;27.824;2022-08-19T14:31:26;13.65;;;5.32;;
63089;SDS011;49174;43.198;27.824;2022-08-19T14:33:52;7.80;;;5.00;;
63089;SDS011;49174;43.198;27.824;2022-08-19T14:36:18;7.70;;;4.90;;
63089;SDS011;49174;43.198;27.824;2022-08-19T14:38:46;7.13;;;4.93;;
63089;SDS011;49174;43.198;27.824;2022-08-19T14:41:17;6.22;;;4.78;;
63089;SDS011;49174;43.198;27.824;2022-08-19T14:46:15;6.15;;;5.00;;